sensor_id;sensor_type;location;lat;lon;timestamp;P1;durP1;ratioP1;P2;durP2;ratioP2
68438;SDS011;55421;51.600;5.718;2023-03-15T00:01:10;0.70;;;0.60;;
68438;SDS011;55421;51.600;5.718;2023-03-15T00:03:44;0.90;;;0.70;;
68438;SDS011;55421;51.600;5.718;2023-03-15T00:06:12;0.60;;;0.60;;
68438;SDS011;55421;51.600;5.718;2023-03-15T00:08:39;0.60;;;0.50;;
68438;SDS011;55421;51.600;5.718;2023-03-15T00:11:06;1.10;;;0.60;;
68438;SDS011;55421;51.600;5.718;2023-03-15T00:13:33;1.30;;;0.90;;
68438;SDS011;55421;51.600;5.718;2023-03-15T00:16:01;1.10;;;0.80;;
68438;SDS011;55421;51.600;5.718;2023-03-15T00:18:28;3.80;;;0.90;;
68438;SDS011;55421;51.600;5.718;2023-03-15T00:20:55;0.60;;;0.60;;
68438;SDS011;55421;51.600;5.718;2023-03-15T00:23:22;0.70;;;0.60;;
68438;SDS011;55421;51.600;5.718;2023-03-15T00:25:50;2.20;;;0.80;;
68438;SDS011;55421;51.600;5.718;2023-03-15T00:28:18;0.80;;;0.60;;
68438;SDS011;55421;51.600;5.718;2023-03-15T00:30:44;0.50;;;0.50;;
68438;SDS011;55421;51.600;5.718;2023-03-15T00:33:12;1.60;;;0.70;;
68438;SDS011;55421;51.600;5.718;2023-03-15T00:35:41;1.00;;;0.80;;
68438;SDS011;55421;51.600;5.718;2023-03-15T00:38:09;0.80;;;0.60;;
68438;SDS011;55421;51.600;5.718;2023-03-15T00:40:37;1.10;;;1.10;;
68438;SDS011;55421;51.600;5.718;2023-03-15T00:43:03;2.50;;;1.00;;
68438;SDS011;55421;51.600;5.718;2023-03-15T00:45:30;1.70;;;0.90;;
68438;SDS011;55421;51.600;5.718;2023-03-15T00:47:57;3.20;;;1.30;;
68438;SDS011;55421;51.600;5.718;2023-03-15T00:50:24;1.00;;;0.80;;
68438;SDS011;55421;51.600;5.718;2023-03-15T00:52:50;2.40;;;1.10;;
68438;SDS011;55421;51.600;5.718;2023-03-15T00:55:18;2.10;;;1.00;;
68438;SDS011;55421;51.600;5.718;2023-03-15T00:57:46;1.30;;;0.90;;
68438;SDS011;55421;51.600;5.718;2023-03-15T01:00:18;2.10;;;1.10;;
68438;SDS011;55421;51.600;5.718;2023-03-15T01:02:46;1.90;;;1.10;;
68438;SDS011;55421;51.600;5.718;2023-03-15T01:05:12;3.70;;;1.50;;
68438;SDS011;55421;51.600;5.718;2023-03-15T01:07:39;1.90;;;1.30;;
68438;SDS011;55421;51.600;5.718;2023-03-15T01:10:10;2.00;;;1.30;;
68438;SDS011;55421;51.600;5.718;2023-03-15T01:12:37;1.70;;;1.20;;
68438;SDS011;55421;51.600;5.718;2023-03-15T01:15:06;1.60;;;1.30;;
68438;SDS011;55421;51.600;5.718;2023-03-15T01:17:34;4.80;;;1.80;;
68438;SDS011;55421;51.600;5.718;2023-03-15T01:20:00;4.10;;;1.80;;
68438;SDS011;55421;51.600;5.718;2023-03-15T01:22:27;2.20;;;1.70;;
68438;SDS011;55421;51.600;5.718;2023-03-15T01:24:54;2.40;;;1.30;;
68438;SDS011;55421;51.600;5.718;2023-03-15T01:27:20;2.80;;;1.90;;
68438;SDS011;55421;51.600;5.718;2023-03-15T01:29:47;2.30;;;1.30;;
68438;SDS011;55421;51.600;5.718;2023-03-15T01:32:13;3.00;;;1.90;;
68438;SDS011;55421;51.600;5.718;2023-03-15T01:34:40;1.50;;;1.40;;
68438;SDS011;55421;51.600;5.718;2023-03-15T01:37:09;2.20;;;1.20;;
68438;SDS011;55421;51.600;5.718;2023-03-15T01:39:40;2.10;;;1.30;;
68438;SDS011;55421;51.600;5.718;2023-03-15T01:42:08;1.10;;;1.00;;
68438;SDS011;55421;51.600;5.718;2023-03-15T01:47:25;3.20;;;1.40;;
68438;SDS011;55421;51.600;5.718;2023-03-15T01:50:18;1.60;;;1.40;;
68438;SDS011;55421;51.600;5.718;2023-03-15T01:52:45;1.60;;;1.50;;
68438;SDS011;55421;51.600;5.718;2023-03-15T01:55:14;5.30;;;1.60;;
68438;SDS011;55421;51.600;5.718;2023-03-15T01:57:50;3.00;;;1.70;;
68438;SDS011;55421;51.600;5.718;2023-03-15T02:00:21;1.80;;;1.50;;
68438;SDS011;55421;51.600;5.718;2023-03-15T02:02:52;2.60;;;1.70;;
68438;SDS011;55421;51.600;5.718;2023-03-15T02:05:45;1.30;;;1.20;;
68438;SDS011;55421;51.600;5.718;2023-03-15T02:08:16;1.60;;;1.50;;
68438;SDS011;55421;51.600;5.718;2023-03-15T02:10:48;1.50;;;1.40;;
68438;SDS011;55421;51.600;5.718;2023-03-15T02:13:20;1.80;;;1.60;;
68438;SDS011;55421;51.600;5.718;2023-03-15T02:15:49;1.60;;;1.50;;
68438;SDS011;55421;51.600;5.718;2023-03-15T02:18:19;1.20;;;1.10;;
68438;SDS011;55421;51.600;5.718;2023-03-15T02:23:59;1.70;;;1.60;;
68438;SDS011;55421;51.600;5.718;2023-03-15T02:26:45;1.40;;;1.30;;
68438;SDS011;55421;51.600;5.718;2023-03-15T02:29:16;1.50;;;1.40;;
68438;SDS011;55421;51.600;5.718;2023-03-15T02:31:43;2.30;;;1.30;;
68438;SDS011;55421;51.600;5.718;2023-03-15T02:34:10;1.80;;;1.40;;
68438;SDS011;55421;51.600;5.718;2023-03-15T02:36:37;1.20;;;1.10;;
68438;SDS011;55421;51.600;5.718;2023-03-15T02:39:18;1.30;;;1.20;;
68438;SDS011;55421;51.600;5.718;2023-03-15T02:41:49;1.60;;;1.50;;
68438;SDS011;55421;51.600;5.718;2023-03-15T02:44:26;1.60;;;1.50;;
68438;SDS011;55421;51.600;5.718;2023-03-15T02:46:56;1.40;;;1.20;;
68438;SDS011;55421;51.600;5.718;2023-03-15T02:49:36;1.30;;;1.10;;
68438;SDS011;55421;51.600;5.718;2023-03-15T02:52:06;1.30;;;1.20;;
68438;SDS011;55421;51.600;5.718;2023-03-15T02:54:33;1.20;;;1.10;;
68438;SDS011;55421;51.600;5.718;2023-03-15T02:57:01;1.30;;;1.20;;
68438;SDS011;55421;51.600;5.718;2023-03-15T02:59:28;2.80;;;1.60;;
68438;SDS011;55421;51.600;5.718;2023-03-15T03:01:54;1.50;;;1.40;;
68438;SDS011;55421;51.600;5.718;2023-03-15T03:04:21;1.60;;;1.50;;
68438;SDS011;55421;51.600;5.718;2023-03-15T03:06:48;1.60;;;1.30;;
68438;SDS011;55421;51.600;5.718;2023-03-15T03:09:16;2.00;;;1.50;;
68438;SDS011;55421;51.600;5.718;2023-03-15T03:11:43;1.50;;;1.40;;
68438;SDS011;55421;51.600;5.718;2023-03-15T03:14:09;1.90;;;1.50;;
68438;SDS011;55421;51.600;5.718;2023-03-15T03:16:40;1.50;;;1.40;;
68438;SDS011;55421;51.600;5.718;2023-03-15T03:19:11;2.00;;;1.70;;
68438;SDS011;55421;51.600;5.718;2023-03-15T03:21:40;2.20;;;2.00;;
68438;SDS011;55421;51.600;5.718;2023-03-15T03:24:11;2.20;;;1.90;;
68438;SDS011;55421;51.600;5.718;2023-03-15T03:26:41;2.10;;;1.90;;
68438;SDS011;55421;51.600;5.718;2023-03-15T03:29:11;2.50;;;2.00;;
68438;SDS011;55421;51.600;5.718;2023-03-15T03:34:09;2.50;;;1.80;;
68438;SDS011;55421;51.600;5.718;2023-03-15T03:36:40;3.20;;;2.20;;
68438;SDS011;55421;51.600;5.718;2023-03-15T03:39:08;4.10;;;3.00;;
68438;SDS011;55421;51.600;5.718;2023-03-15T03:41:35;3.10;;;2.60;;
68438;SDS011;55421;51.600;5.718;2023-03-15T03:44:03;2.50;;;2.30;;
68438;SDS011;55421;51.600;5.718;2023-03-15T03:46:29;3.40;;;2.60;;
68438;SDS011;55421;51.600;5.718;2023-03-15T03:48:56;4.20;;;3.10;;
68438;SDS011;55421;51.600;5.718;2023-03-15T03:51:22;4.50;;;3.60;;
68438;SDS011;55421;51.600;5.718;2023-03-15T03:53:49;5.00;;;3.80;;
68438;SDS011;55421;51.600;5.718;2023-03-15T03:56:15;5.80;;;4.20;;
68438;SDS011;55421;51.600;5.718;2023-03-15T03:58:42;5.70;;;4.40;;
68438;SDS011;55421;51.600;5.718;2023-03-15T04:01:08;5.20;;;4.10;;
68438;SDS011;55421;51.600;5.718;2023-03-15T04:03:35;6.90;;;4.30;;
68438;SDS011;55421;51.600;5.718;2023-03-15T04:06:01;7.30;;;4.80;;
68438;SDS011;55421;51.600;5.718;2023-03-15T04:08:30;8.10;;;5.10;;
68438;SDS011;55421;51.600;5.718;2023-03-15T04:10:57;8.20;;;5.30;;
68438;SDS011;55421;51.600;5.718;2023-03-15T04:13:24;10.00;;;6.50;;
68438;SDS011;55421;51.600;5.718;2023-03-15T04:15:51;8.90;;;6.50;;
68438;SDS011;55421;51.600;5.718;2023-03-15T04:18:22;9.90;;;6.60;;
68438;SDS011;55421;51.600;5.718;2023-03-15T04:20:49;11.10;;;7.20;;
68438;SDS011;55421;51.600;5.718;2023-03-15T04:23:21;10.90;;;7.50;;
68438;SDS011;55421;51.600;5.718;2023-03-15T04:25:52;13.20;;;7.30;;
68438;SDS011;55421;51.600;5.718;2023-03-15T04:28:23;11.30;;;7.10;;
68438;SDS011;55421;51.600;5.718;2023-03-15T04:30:50;15.00;;;9.10;;
68438;SDS011;55421;51.600;5.718;2023-03-15T04:33:16;12.50;;;7.80;;
68438;SDS011;55421;51.600;5.718;2023-03-15T04:35:43;10.90;;;7.60;;
68438;SDS011;55421;51.600;5.718;2023-03-15T04:38:10;11.40;;;7.50;;
68438;SDS011;55421;51.600;5.718;2023-03-15T04:40:36;11.80;;;7.60;;
68438;SDS011;55421;51.600;5.718;2023-03-15T04:43:04;13.70;;;8.40;;
68438;SDS011;55421;51.600;5.718;2023-03-15T04:45:31;14.60;;;8.90;;
68438;SDS011;55421;51.600;5.718;2023-03-15T04:48:00;12.40;;;7.90;;
68438;SDS011;55421;51.600;5.718;2023-03-15T04:50:28;13.60;;;8.40;;
68438;SDS011;55421;51.600;5.718;2023-03-15T04:52:58;13.60;;;7.90;;
68438;SDS011;55421;51.600;5.718;2023-03-15T04:55:25;17.50;;;9.70;;
68438;SDS011;55421;51.600;5.718;2023-03-15T04:57:52;12.40;;;8.20;;
68438;SDS011;55421;51.600;5.718;2023-03-15T05:00:19;14.00;;;7.60;;
68438;SDS011;55421;51.600;5.718;2023-03-15T05:02:46;11.10;;;7.10;;
68438;SDS011;55421;51.600;5.718;2023-03-15T05:05:21;15.00;;;8.90;;
68438;SDS011;55421;51.600;5.718;2023-03-15T05:07:49;15.90;;;9.20;;
68438;SDS011;55421;51.600;5.718;2023-03-15T05:10:16;15.50;;;8.70;;
68438;SDS011;55421;51.600;5.718;2023-03-15T05:12:43;11.20;;;7.20;;
68438;SDS011;55421;51.600;5.718;2023-03-15T05:15:09;11.40;;;6.80;;
68438;SDS011;55421;51.600;5.718;2023-03-15T05:17:36;13.40;;;8.10;;
68438;SDS011;55421;51.600;5.718;2023-03-15T05:20:03;12.50;;;8.30;;
68438;SDS011;55421;51.600;5.718;2023-03-15T05:22:39;13.20;;;7.50;;
68438;SDS011;55421;51.600;5.718;2023-03-15T05:25:08;13.10;;;7.50;;
68438;SDS011;55421;51.600;5.718;2023-03-15T05:27:36;13.00;;;8.00;;
68438;SDS011;55421;51.600;5.718;2023-03-15T05:30:05;12.90;;;8.40;;
68438;SDS011;55421;51.600;5.718;2023-03-15T05:32:41;13.60;;;8.80;;
68438;SDS011;55421;51.600;5.718;2023-03-15T05:35:15;14.80;;;8.30;;
68438;SDS011;55421;51.600;5.718;2023-03-15T05:37:42;13.10;;;8.20;;
68438;SDS011;55421;51.600;5.718;2023-03-15T05:40:09;12.80;;;8.10;;
68438;SDS011;55421;51.600;5.718;2023-03-15T05:42:37;15.60;;;8.10;;
68438;SDS011;55421;51.600;5.718;2023-03-15T05:45:06;16.00;;;8.30;;
68438;SDS011;55421;51.600;5.718;2023-03-15T05:47:33;14.20;;;8.20;;
68438;SDS011;55421;51.600;5.718;2023-03-15T05:50:00;12.60;;;8.40;;
68438;SDS011;55421;51.600;5.718;2023-03-15T05:52:26;13.60;;;8.90;;
68438;SDS011;55421;51.600;5.718;2023-03-15T05:54:53;14.40;;;8.30;;
68438;SDS011;55421;51.600;5.718;2023-03-15T05:57:19;12.60;;;8.10;;
68438;SDS011;55421;51.600;5.718;2023-03-15T05:59:46;16.70;;;8.70;;
68438;SDS011;55421;51.600;5.718;2023-03-15T06:02:12;15.10;;;9.20;;
68438;SDS011;55421;51.600;5.718;2023-03-15T06:04:39;13.90;;;8.20;;
68438;SDS011;55421;51.600;5.718;2023-03-15T06:07:06;14.30;;;8.40;;
68438;SDS011;55421;51.600;5.718;2023-03-15T06:09:33;16.20;;;9.40;;
68438;SDS011;55421;51.600;5.718;2023-03-15T06:11:59;15.50;;;9.30;;
68438;SDS011;55421;51.600;5.718;2023-03-15T06:14:26;13.50;;;8.60;;
68438;SDS011;55421;51.600;5.718;2023-03-15T06:16:53;14.10;;;8.60;;
68438;SDS011;55421;51.600;5.718;2023-03-15T06:19:20;12.70;;;8.30;;
68438;SDS011;55421;51.600;5.718;2023-03-15T06:21:47;14.40;;;8.60;;
68438;SDS011;55421;51.600;5.718;2023-03-15T06:24:14;17.60;;;9.80;;
68438;SDS011;55421;51.600;5.718;2023-03-15T06:26:41;17.30;;;9.80;;
68438;SDS011;55421;51.600;5.718;2023-03-15T06:29:07;15.30;;;9.40;;
68438;SDS011;55421;51.600;5.718;2023-03-15T06:31:35;16.40;;;9.30;;
68438;SDS011;55421;51.600;5.718;2023-03-15T06:34:02;15.20;;;9.40;;
68438;SDS011;55421;51.600;5.718;2023-03-15T06:36:29;15.10;;;8.50;;
68438;SDS011;55421;51.600;5.718;2023-03-15T06:38:56;13.10;;;8.50;;
68438;SDS011;55421;51.600;5.718;2023-03-15T06:41:23;14.10;;;9.10;;
68438;SDS011;55421;51.600;5.718;2023-03-15T06:43:49;16.00;;;9.50;;
68438;SDS011;55421;51.600;5.718;2023-03-15T06:46:16;14.20;;;9.20;;
68438;SDS011;55421;51.600;5.718;2023-03-15T06:48:42;17.30;;;9.80;;
68438;SDS011;55421;51.600;5.718;2023-03-15T06:51:09;18.40;;;10.40;;
68438;SDS011;55421;51.600;5.718;2023-03-15T06:53:35;17.10;;;10.20;;
68438;SDS011;55421;51.600;5.718;2023-03-15T06:56:02;12.00;;;7.00;;
68438;SDS011;55421;51.600;5.718;2023-03-15T06:58:29;22.00;;;11.00;;
68438;SDS011;55421;51.600;5.718;2023-03-15T07:00:56;14.60;;;9.50;;
68438;SDS011;55421;51.600;5.718;2023-03-15T07:03:23;14.30;;;8.40;;
68438;SDS011;55421;51.600;5.718;2023-03-15T07:05:49;13.50;;;8.50;;
68438;SDS011;55421;51.600;5.718;2023-03-15T07:08:21;16.80;;;9.80;;
68438;SDS011;55421;51.600;5.718;2023-03-15T07:10:49;17.20;;;9.30;;
68438;SDS011;55421;51.600;5.718;2023-03-15T07:13:17;18.00;;;10.00;;
68438;SDS011;55421;51.600;5.718;2023-03-15T07:15:44;18.60;;;8.00;;
68438;SDS011;55421;51.600;5.718;2023-03-15T07:18:12;8.40;;;5.10;;
68438;SDS011;55421;51.600;5.718;2023-03-15T07:20:39;14.10;;;8.50;;
68438;SDS011;55421;51.600;5.718;2023-03-15T07:23:05;15.40;;;8.50;;
68438;SDS011;55421;51.600;5.718;2023-03-15T07:25:32;13.40;;;8.20;;
68438;SDS011;55421;51.600;5.718;2023-03-15T07:27:58;13.00;;;8.50;;
68438;SDS011;55421;51.600;5.718;2023-03-15T07:30:25;18.30;;;9.40;;
68438;SDS011;55421;51.600;5.718;2023-03-15T07:32:53;14.30;;;9.20;;
68438;SDS011;55421;51.600;5.718;2023-03-15T07:35:19;15.90;;;9.70;;
68438;SDS011;55421;51.600;5.718;2023-03-15T07:37:46;16.00;;;9.70;;
68438;SDS011;55421;51.600;5.718;2023-03-15T07:40:13;17.10;;;10.40;;
68438;SDS011;55421;51.600;5.718;2023-03-15T07:42:41;17.80;;;9.60;;
68438;SDS011;55421;51.600;5.718;2023-03-15T07:45:09;15.20;;;9.20;;
68438;SDS011;55421;51.600;5.718;2023-03-15T07:47:36;15.30;;;9.30;;
68438;SDS011;55421;51.600;5.718;2023-03-15T07:50:04;15.00;;;9.00;;
68438;SDS011;55421;51.600;5.718;2023-03-15T07:52:31;14.40;;;9.70;;
68438;SDS011;55421;51.600;5.718;2023-03-15T07:54:58;15.40;;;9.80;;
68438;SDS011;55421;51.600;5.718;2023-03-15T07:57:24;15.40;;;9.30;;
68438;SDS011;55421;51.600;5.718;2023-03-15T07:59:51;14.90;;;9.20;;
68438;SDS011;55421;51.600;5.718;2023-03-15T08:02:18;15.00;;;9.50;;
68438;SDS011;55421;51.600;5.718;2023-03-15T08:04:47;18.10;;;9.40;;
68438;SDS011;55421;51.600;5.718;2023-03-15T08:07:16;15.30;;;8.70;;
68438;SDS011;55421;51.600;5.718;2023-03-15T08:09:42;11.90;;;7.10;;
68438;SDS011;55421;51.600;5.718;2023-03-15T08:12:09;11.80;;;7.00;;
68438;SDS011;55421;51.600;5.718;2023-03-15T08:14:36;11.70;;;6.90;;
68438;SDS011;55421;51.600;5.718;2023-03-15T08:17:02;12.60;;;7.40;;
68438;SDS011;55421;51.600;5.718;2023-03-15T08:19:29;14.30;;;6.80;;
68438;SDS011;55421;51.600;5.718;2023-03-15T08:21:56;10.70;;;6.20;;
68438;SDS011;55421;51.600;5.718;2023-03-15T08:24:22;12.20;;;5.30;;
68438;SDS011;55421;51.600;5.718;2023-03-15T08:26:49;9.70;;;6.10;;
68438;SDS011;55421;51.600;5.718;2023-03-15T08:29:17;12.20;;;5.40;;
68438;SDS011;55421;51.600;5.718;2023-03-15T08:31:44;8.40;;;4.70;;
68438;SDS011;55421;51.600;5.718;2023-03-15T08:34:10;10.80;;;4.10;;
68438;SDS011;55421;51.600;5.718;2023-03-15T08:36:37;8.90;;;4.00;;
68438;SDS011;55421;51.600;5.718;2023-03-15T08:39:03;10.30;;;4.00;;
68438;SDS011;55421;51.600;5.718;2023-03-15T08:41:30;11.00;;;3.80;;
68438;SDS011;55421;51.600;5.718;2023-03-15T08:43:57;15.10;;;5.40;;
68438;SDS011;55421;51.600;5.718;2023-03-15T08:46:24;9.40;;;4.30;;
68438;SDS011;55421;51.600;5.718;2023-03-15T08:48:52;8.90;;;3.80;;
68438;SDS011;55421;51.600;5.718;2023-03-15T08:51:18;6.80;;;4.20;;
68438;SDS011;55421;51.600;5.718;2023-03-15T08:53:46;5.40;;;2.90;;
68438;SDS011;55421;51.600;5.718;2023-03-15T08:56:13;10.10;;;4.40;;
68438;SDS011;55421;51.600;5.718;2023-03-15T08:58:40;9.60;;;4.40;;
68438;SDS011;55421;51.600;5.718;2023-03-15T09:01:12;9.30;;;5.00;;
68438;SDS011;55421;51.600;5.718;2023-03-15T09:03:39;9.10;;;4.90;;
68438;SDS011;55421;51.600;5.718;2023-03-15T09:06:08;10.70;;;4.80;;
68438;SDS011;55421;51.600;5.718;2023-03-15T09:08:35;12.50;;;4.90;;
68438;SDS011;55421;51.600;5.718;2023-03-15T09:11:01;9.60;;;5.20;;
68438;SDS011;55421;51.600;5.718;2023-03-15T09:13:29;12.80;;;4.90;;
68438;SDS011;55421;51.600;5.718;2023-03-15T09:15:56;9.10;;;4.70;;
68438;SDS011;55421;51.600;5.718;2023-03-15T09:18:23;9.20;;;4.40;;
68438;SDS011;55421;51.600;5.718;2023-03-15T09:20:49;8.90;;;4.30;;
68438;SDS011;55421;51.600;5.718;2023-03-15T09:23:16;10.40;;;4.50;;
68438;SDS011;55421;51.600;5.718;2023-03-15T09:25:42;11.80;;;4.80;;
68438;SDS011;55421;51.600;5.718;2023-03-15T09:28:09;7.70;;;4.30;;
68438;SDS011;55421;51.600;5.718;2023-03-15T09:30:38;13.50;;;4.00;;
68438;SDS011;55421;51.600;5.718;2023-03-15T09:33:07;11.00;;;4.30;;
68438;SDS011;55421;51.600;5.718;2023-03-15T09:35:34;14.10;;;3.50;;
68438;SDS011;55421;51.600;5.718;2023-03-15T09:38:01;6.60;;;2.90;;
68438;SDS011;55421;51.600;5.718;2023-03-15T09:40:31;7.20;;;2.50;;
68438;SDS011;55421;51.600;5.718;2023-03-15T09:43:17;9.90;;;2.70;;
68438;SDS011;55421;51.600;5.718;2023-03-15T09:46:19;9.10;;;2.50;;
68438;SDS011;55421;51.600;5.718;2023-03-15T09:49:02;10.20;;;2.40;;
68438;SDS011;55421;51.600;5.718;2023-03-15T09:51:47;9.40;;;2.10;;
68438;SDS011;55421;51.600;5.718;2023-03-15T09:54:22;7.80;;;1.90;;
68438;SDS011;55421;51.600;5.718;2023-03-15T09:57:00;7.50;;;2.50;;
68438;SDS011;55421;51.600;5.718;2023-03-15T09:59:35;7.40;;;2.30;;
68438;SDS011;55421;51.600;5.718;2023-03-15T10:02:22;6.70;;;1.90;;
68438;SDS011;55421;51.600;5.718;2023-03-15T10:04:58;7.40;;;1.70;;
68438;SDS011;55421;51.600;5.718;2023-03-15T10:07:30;7.80;;;1.60;;
68438;SDS011;55421;51.600;5.718;2023-03-15T10:09:58;9.20;;;1.90;;
68438;SDS011;55421;51.600;5.718;2023-03-15T10:12:33;8.80;;;1.90;;
68438;SDS011;55421;51.600;5.718;2023-03-15T10:15:20;7.80;;;1.60;;
68438;SDS011;55421;51.600;5.718;2023-03-15T10:20:28;8.60;;;1.30;;
68438;SDS011;55421;51.600;5.718;2023-03-15T10:23:14;10.20;;;1.40;;
68438;SDS011;55421;51.600;5.718;2023-03-15T10:25:49;7.90;;;1.70;;
68438;SDS011;55421;51.600;5.718;2023-03-15T10:28:26;3.30;;;1.30;;
68438;SDS011;55421;51.600;5.718;2023-03-15T10:30:59;5.80;;;1.50;;
68438;SDS011;55421;51.600;5.718;2023-03-15T10:33:30;7.90;;;1.50;;
68438;SDS011;55421;51.600;5.718;2023-03-15T10:36:00;4.00;;;1.30;;
68438;SDS011;55421;51.600;5.718;2023-03-15T10:38:29;4.70;;;1.90;;
68438;SDS011;55421;51.600;5.718;2023-03-15T10:40:58;4.30;;;1.60;;
68438;SDS011;55421;51.600;5.718;2023-03-15T10:43:27;5.90;;;1.30;;
68438;SDS011;55421;51.600;5.718;2023-03-15T10:48:54;5.30;;;1.90;;
68438;SDS011;55421;51.600;5.718;2023-03-15T10:51:45;5.00;;;1.40;;
68438;SDS011;55421;51.600;5.718;2023-03-15T10:54:19;5.50;;;1.60;;
68438;SDS011;55421;51.600;5.718;2023-03-15T10:57:05;8.20;;;2.00;;
68438;SDS011;55421;51.600;5.718;2023-03-15T10:59:56;3.20;;;1.20;;
68438;SDS011;55421;51.600;5.718;2023-03-15T11:02:25;5.80;;;1.50;;
68438;SDS011;55421;51.600;5.718;2023-03-15T11:07:34;2.80;;;1.10;;
68438;SDS011;55421;51.600;5.718;2023-03-15T11:10:05;3.20;;;1.30;;
68438;SDS011;55421;51.600;5.718;2023-03-15T11:12:33;4.00;;;1.30;;
68438;SDS011;55421;51.600;5.718;2023-03-15T11:15:11;4.20;;;1.60;;
68438;SDS011;55421;51.600;5.718;2023-03-15T11:17:45;3.30;;;1.20;;
68438;SDS011;55421;51.600;5.718;2023-03-15T11:20:46;2.80;;;1.10;;
68438;SDS011;55421;51.600;5.718;2023-03-15T11:23:19;5.30;;;1.80;;
68438;SDS011;55421;51.600;5.718;2023-03-15T11:25:53;5.00;;;1.40;;
68438;SDS011;55421;51.600;5.718;2023-03-15T11:28:27;3.60;;;1.10;;
68438;SDS011;55421;51.600;5.718;2023-03-15T11:30:57;3.40;;;1.10;;
68438;SDS011;55421;51.600;5.718;2023-03-15T11:33:47;4.20;;;1.40;;
68438;SDS011;55421;51.600;5.718;2023-03-15T11:36:21;4.90;;;1.20;;
68438;SDS011;55421;51.600;5.718;2023-03-15T11:38:53;6.40;;;1.60;;
68438;SDS011;55421;51.600;5.718;2023-03-15T11:41:40;1.50;;;0.70;;
68438;SDS011;55421;51.600;5.718;2023-03-15T11:44:40;2.70;;;0.70;;
68438;SDS011;55421;51.600;5.718;2023-03-15T11:50:13;3.10;;;1.00;;
68438;SDS011;55421;51.600;5.718;2023-03-15T11:52:41;3.00;;;1.30;;
68438;SDS011;55421;51.600;5.718;2023-03-15T11:55:22;4.70;;;1.20;;
68438;SDS011;55421;51.600;5.718;2023-03-15T11:57:50;5.00;;;1.40;;
68438;SDS011;55421;51.600;5.718;2023-03-15T12:11:13;2.30;;;1.10;;
68438;SDS011;55421;51.600;5.718;2023-03-15T12:14:04;2.50;;;0.80;;
68438;SDS011;55421;51.600;5.718;2023-03-15T12:16:45;2.00;;;1.00;;
68438;SDS011;55421;51.600;5.718;2023-03-15T12:19:17;3.10;;;0.90;;
68438;SDS011;55421;51.600;5.718;2023-03-15T12:21:49;1.60;;;0.90;;
68438;SDS011;55421;51.600;5.718;2023-03-15T12:27:01;3.50;;;1.10;;
68438;SDS011;55421;51.600;5.718;2023-03-15T12:29:31;1.90;;;1.00;;
68438;SDS011;55421;51.600;5.718;2023-03-15T12:34:49;2.30;;;0.70;;
68438;SDS011;55421;51.600;5.718;2023-03-15T12:37:21;5.70;;;1.10;;
68438;SDS011;55421;51.600;5.718;2023-03-15T12:55:50;3.80;;;1.50;;
68438;SDS011;55421;51.600;5.718;2023-03-15T12:58:19;4.70;;;1.00;;
68438;SDS011;55421;51.600;5.718;2023-03-15T13:00:52;1.80;;;0.90;;
68438;SDS011;55421;51.600;5.718;2023-03-15T13:03:21;2.90;;;0.70;;
68438;SDS011;55421;51.600;5.718;2023-03-15T13:11:50;3.90;;;1.00;;
68438;SDS011;55421;51.600;5.718;2023-03-15T13:18:21;2.00;;;0.70;;
68438;SDS011;55421;51.600;5.718;2023-03-15T13:21:08;3.20;;;0.90;;
68438;SDS011;55421;51.600;5.718;2023-03-15T13:23:50;3.00;;;1.20;;
68438;SDS011;55421;51.600;5.718;2023-03-15T13:26:54;1.30;;;1.00;;
68438;SDS011;55421;51.600;5.718;2023-03-15T13:29:30;2.60;;;0.90;;
68438;SDS011;55421;51.600;5.718;2023-03-15T13:32:11;3.00;;;0.80;;
68438;SDS011;55421;51.600;5.718;2023-03-15T13:34:42;1.90;;;0.90;;
68438;SDS011;55421;51.600;5.718;2023-03-15T13:37:23;4.10;;;1.00;;
68438;SDS011;55421;51.600;5.718;2023-03-15T13:40:02;3.70;;;1.00;;
68438;SDS011;55421;51.600;5.718;2023-03-15T13:42:31;4.10;;;1.10;;
68438;SDS011;55421;51.600;5.718;2023-03-15T13:45:10;3.40;;;1.20;;
68438;SDS011;55421;51.600;5.718;2023-03-15T13:47:42;2.60;;;0.90;;
68438;SDS011;55421;51.600;5.718;2023-03-15T13:50:19;1.70;;;0.90;;
68438;SDS011;55421;51.600;5.718;2023-03-15T13:52:47;3.30;;;0.80;;
68438;SDS011;55421;51.600;5.718;2023-03-15T13:55:19;2.90;;;0.80;;
68438;SDS011;55421;51.600;5.718;2023-03-15T13:57:58;3.40;;;1.10;;
68438;SDS011;55421;51.600;5.718;2023-03-15T14:00:31;1.40;;;1.10;;
68438;SDS011;55421;51.600;5.718;2023-03-15T14:03:05;1.70;;;1.00;;
68438;SDS011;55421;51.600;5.718;2023-03-15T14:05:42;2.00;;;1.00;;
68438;SDS011;55421;51.600;5.718;2023-03-15T14:08:21;1.90;;;0.80;;
68438;SDS011;55421;51.600;5.718;2023-03-15T14:10:58;2.00;;;0.80;;
68438;SDS011;55421;51.600;5.718;2023-03-15T14:13:34;4.60;;;0.90;;
68438;SDS011;55421;51.600;5.718;2023-03-15T14:16:41;2.10;;;0.90;;
68438;SDS011;55421;51.600;5.718;2023-03-15T14:19:20;1.20;;;0.70;;
68438;SDS011;55421;51.600;5.718;2023-03-15T14:21:56;4.30;;;1.40;;
68438;SDS011;55421;51.600;5.718;2023-03-15T14:24:33;3.60;;;0.90;;
68438;SDS011;55421;51.600;5.718;2023-03-15T14:27:14;4.20;;;1.00;;
68438;SDS011;55421;51.600;5.718;2023-03-15T14:29:52;1.80;;;0.80;;
68438;SDS011;55421;51.600;5.718;2023-03-15T14:32:27;1.70;;;0.70;;
68438;SDS011;55421;51.600;5.718;2023-03-15T14:35:21;5.40;;;1.20;;
68438;SDS011;55421;51.600;5.718;2023-03-15T14:38:35;5.20;;;1.10;;
68438;SDS011;55421;51.600;5.718;2023-03-15T14:43:45;3.30;;;0.90;;
68438;SDS011;55421;51.600;5.718;2023-03-15T14:46:12;4.40;;;0.70;;
68438;SDS011;55421;51.600;5.718;2023-03-15T14:48:39;3.70;;;0.80;;
68438;SDS011;55421;51.600;5.718;2023-03-15T14:51:12;1.90;;;0.90;;
68438;SDS011;55421;51.600;5.718;2023-03-15T14:53:42;2.70;;;0.80;;
68438;SDS011;55421;51.600;5.718;2023-03-15T14:56:11;4.10;;;1.10;;
68438;SDS011;55421;51.600;5.718;2023-03-15T14:58:39;0.70;;;0.70;;
68438;SDS011;55421;51.600;5.718;2023-03-15T15:01:11;2.20;;;1.10;;
68438;SDS011;55421;51.600;5.718;2023-03-15T15:03:46;1.20;;;0.60;;
68438;SDS011;55421;51.600;5.718;2023-03-15T15:06:15;2.90;;;0.90;;
68438;SDS011;55421;51.600;5.718;2023-03-15T15:08:44;4.80;;;1.00;;
68438;SDS011;55421;51.600;5.718;2023-03-15T15:11:13;1.20;;;0.70;;
68438;SDS011;55421;51.600;5.718;2023-03-15T15:13:40;3.20;;;0.70;;
68438;SDS011;55421;51.600;5.718;2023-03-15T15:16:07;1.30;;;0.70;;
68438;SDS011;55421;51.600;5.718;2023-03-15T15:18:35;4.50;;;0.90;;
68438;SDS011;55421;51.600;5.718;2023-03-15T15:23:47;2.10;;;0.80;;
68438;SDS011;55421;51.600;5.718;2023-03-15T15:26:18;3.00;;;0.80;;
68438;SDS011;55421;51.600;5.718;2023-03-15T15:28:47;3.90;;;0.80;;
68438;SDS011;55421;51.600;5.718;2023-03-15T15:31:19;1.70;;;1.10;;
68438;SDS011;55421;51.600;5.718;2023-03-15T15:33:51;1.60;;;0.80;;
68438;SDS011;55421;51.600;5.718;2023-03-15T15:36:27;3.80;;;0.90;;
68438;SDS011;55421;51.600;5.718;2023-03-15T15:38:56;2.70;;;1.30;;
68438;SDS011;55421;51.600;5.718;2023-03-15T15:41:25;4.30;;;0.80;;
68438;SDS011;55421;51.600;5.718;2023-03-15T15:43:55;2.10;;;0.70;;
68438;SDS011;55421;51.600;5.718;2023-03-15T15:46:21;1.70;;;0.80;;
68438;SDS011;55421;51.600;5.718;2023-03-15T15:48:50;3.10;;;0.80;;
68438;SDS011;55421;51.600;5.718;2023-03-15T15:51:29;1.70;;;0.70;;
68438;SDS011;55421;51.600;5.718;2023-03-15T15:54:14;1.30;;;0.80;;
68438;SDS011;55421;51.600;5.718;2023-03-15T15:56:48;1.20;;;0.70;;
68438;SDS011;55421;51.600;5.718;2023-03-15T15:59:17;2.00;;;0.80;;
68438;SDS011;55421;51.600;5.718;2023-03-15T16:01:45;1.90;;;0.60;;
68438;SDS011;55421;51.600;5.718;2023-03-15T16:04:16;1.90;;;0.60;;
68438;SDS011;55421;51.600;5.718;2023-03-15T16:06:53;3.70;;;1.00;;
68438;SDS011;55421;51.600;5.718;2023-03-15T16:09:21;4.60;;;1.00;;
68438;SDS011;55421;51.600;5.718;2023-03-15T16:11:50;4.90;;;0.80;;